Metar z pełnej godziny Komunikat METAR ze strony awiacja.imgw.pl Metar G00 EPRA METAR EPRA 171300Z 26004KT 220V330 9999 SCT047 28/19 Q1018=